Time;durP1;ratioP1;P1;durP2;ratioP2;P2;SDS_P1;SDS_P2;PMS_P1;PMS_P2;Temp;Humidity;BMP_temperature;BMP_pressure;BME280_temperature;BME280_humidity;BME280_pressure;Samples;Min_cycle;Max_cycle;Signal;HPM_P1;HPM_P2
2023/09/29 00:01:21;;;;;;;2.10;1.90;;;;;;;13.38;100.00;98300.38;1223490;75;3015316;-75
2023/09/29 00:03:53;;;;;;;2.20;1.70;;;;;;;13.31;100.00;98300.78;1222385;75;3086002;-75
2023/09/29 00:06:26;;;;;;;4.05;1.95;;;;;;;13.36;100.00;98300.84;1219366;75;3111395;-78
2023/09/29 00:09:02;;;;;;;2.75;1.60;;;;;;;13.30;100.00;98302.78;1227805;75;2922775;-77
2023/09/29 00:11:34;;;;;;;2.10;1.70;;;;;;;13.36;100.00;98297.34;1211482;75;4084761;-76
2023/09/29 00:14:07;;;;;;;2.20;1.90;;;;;;;13.17;100.00;98297.53;1223328;75;3099894;-75
2023/09/29 00:16:40;;;;;;;2.20;2.00;;;;;;;13.04;100.00;98293.59;1228963;75;2922759;-75
2023/09/29 00:19:13;;;;;;;2.85;2.45;;;;;;;12.87;100.00;98287.81;1228402;75;2932441;-77
2023/09/29 00:21:45;;;;;;;3.30;2.90;;;;;;;12.90;100.00;98295.13;1213941;75;4098818;-75
2023/09/29 00:24:21;;;;;;;3.85;2.85;;;;;;;13.02;100.00;98296.06;1226896;75;2977192;-76
2023/09/29 00:26:53;;;;;;;2.90;2.60;;;;;;;13.15;100.00;98282.75;1222884;75;3062971;-76
2023/09/29 00:29:27;;;;;;;2.30;2.10;;;;;;;13.16;100.00;98284.28;1226864;75;2922400;-73
2023/09/29 00:32:00;;;;;;;3.50;2.15;;;;;;;13.03;100.00;98287.34;1227992;75;2914216;-74
2023/09/29 00:34:33;;;;;;;2.30;2.00;;;;;;;13.04;100.00;98286.13;1226980;75;2928337;-76
2023/09/29 00:37:08;;;;;;;2.55;2.20;;;;;;;12.83;100.00;98282.53;1225519;75;3041181;-78
2023/09/29 00:39:43;;;;;;;2.45;2.25;;;;;;;12.93;100.00;98285.94;1223942;75;3014005;-77
2023/09/29 00:42:16;;;;;;;2.20;1.90;;;;;;;12.94;100.00;98287.44;1219375;75;3031723;-76
2023/09/29 00:44:49;;;;;;;2.20;1.95;;;;;;;12.88;100.00;98276.38;1225199;75;3099572;-76
2023/09/29 00:47:21;;;;;;;2.40;2.20;;;;;;;12.74;100.00;98283.38;1224181;75;3008090;-76
2023/09/29 00:49:55;;;;;;;2.85;2.35;;;;;;;12.66;100.00;98263.03;1223290;75;3009247;-77
2023/09/29 00:52:28;;;;;;;2.65;2.15;;;;;;;12.74;100.00;98275.16;1223985;75;3113419;-74
2023/09/29 00:55:04;;;;;;;2.65;2.40;;;;;;;12.64;100.00;98262.75;1220032;75;3109839;-78
2023/09/29 00:57:37;;;;;;;2.35;2.00;;;;;;;12.77;100.00;98271.47;1226081;75;2924200;-77
2023/09/29 01:00:21;;;;;;;2.50;2.30;;;;;;;12.72;100.00;98269.41;1225711;75;3029745;-76
2023/09/29 01:02:53;;;;;;;2.35;2.10;;;;;;;12.71;100.00;98267.13;1227020;75;2919862;-75
2023/09/29 01:05:26;;;;;;;2.85;2.25;;;;;;;12.67;100.00;98272.78;1226258;75;2995616;-72
2023/09/29 01:07:59;;;;;;;4.65;3.45;;;;;;;12.40;100.00;98267.59;1226647;75;2931801;-76
2023/09/29 01:10:34;;;;;;;5.00;4.25;;;;;;;12.14;100.00;98279.09;1220809;75;3097178;-79
2023/09/29 01:13:08;;;;;;;5.60;3.80;;;;;;;12.04;100.00;98270.19;1209349;75;3994988;-75
2023/09/29 01:15:42;;;;;;;3.65;2.90;;;;;;;12.47;100.00;98265.22;1210803;75;3990151;-77
2023/09/29 01:18:16;;;;;;;3.85;3.10;;;;;;;12.26;100.00;98255.38;1221867;75;3048609;-75
2023/09/29 01:20:48;;;;;;;3.95;3.00;;;;;;;12.30;100.00;98262.19;1223117;75;3051687;-77
2023/09/29 01:23:23;;;;;;;2.40;2.20;;;;;;;12.45;100.00;98253.94;1220788;75;3076723;-79
2023/09/29 01:25:59;;;;;;;2.65;2.40;;;;;;;12.50;100.00;98258.03;1225593;75;2954638;-76
2023/09/29 01:28:31;;;;;;;2.50;2.30;;;;;;;12.49;100.00;98251.78;1225811;75;2995300;-74
2023/09/29 01:31:06;;;;;;;2.80;2.30;;;;;;;12.38;100.00;98264.56;1223977;75;3023417;-75
2023/09/29 01:33:39;;;;;;;2.70;2.20;;;;;;;12.40;100.00;98262.09;1228266;75;2915907;-78
2023/09/29 01:36:12;;;;;;;2.30;2.10;;;;;;;12.33;100.00;98261.22;1226531;75;2943487;-78
2023/09/29 01:38:45;;;;;;;2.30;2.05;;;;;;;12.33;100.00;98261.22;1219345;67;3072240;-74
2023/09/29 01:41:21;;;;;;;2.80;2.10;;;;;;;12.28;100.00;98256.41;1228276;75;2917058;-77
2023/09/29 01:43:55;;;;;;;2.50;2.30;;;;;;;12.02;100.00;98256.19;1212466;75;3964728;-77
2023/09/29 01:46:29;;;;;;;2.65;2.20;;;;;;;12.11;100.00;98256.09;1210963;75;4070046;-74
2023/09/29 01:49:01;;;;;;;2.55;2.35;;;;;;;12.16;100.00;98262.94;1225610;75;2977145;-79
2023/09/29 01:51:34;;;;;;;2.30;2.10;;;;;;;12.25;100.00;98253.88;1222257;75;3042313;-76
2023/09/29 01:54:07;;;;;;;2.30;1.90;;;;;;;12.14;100.00;98257.16;1227233;75;2925494;-77
2023/09/29 01:56:42;;;;;;;3.15;2.65;;;;;;;12.06;100.00;98258.75;1226028;75;2972938;-74
2023/09/29 01:59:16;;;;;;;3.05;2.70;;;;;;;12.02;100.00;98253.44;1225744;75;2959489;-75
2023/09/29 02:01:48;;;;;;;2.75;2.45;;;;;;;12.12;100.00;98257.63;1221182;75;3105082;-74
2023/09/29 02:04:21;;;;;;;2.70;2.30;;;;;;;11.99;100.00;98257.13;1220919;75;3090238;-76
2023/09/29 02:06:54;;;;;;;2.35;2.15;;;;;;;12.03;100.00;98251.47;1228161;75;2941160;-76
2023/09/29 02:09:26;;;;;;;3.10;2.50;;;;;;;11.89;100.00;98253.72;1225890;75;2968858;-78
2023/09/29 02:12:02;;;;;;;2.70;2.40;;;;;;;12.03;100.00;98241.25;1227895;75;2922009;-76
2023/09/29 02:14:34;;;;;;;2.35;2.10;;;;;;;12.01;100.00;98245.69;1226664;75;2924377;-77
2023/09/29 02:17:08;;;;;;;2.45;2.05;;;;;;;11.75;100.00;98248.91;1227853;75;2917380;-77
2023/09/29 02:19:41;;;;;;;2.95;2.15;;;;;;;11.91;100.00;98250.50;1222004;75;3038114;-75
2023/09/29 02:22:16;;;;;;;2.20;2.00;;;;;;;11.89;100.00;98242.72;1225599;75;3019081;-77
2023/09/29 02:24:49;;;;;;;2.20;2.00;;;;;;;11.89;100.00;98250.22;1226734;75;2920622;-78
2023/09/29 02:27:25;;;;;;;2.80;2.50;;;;;;;11.91;100.00;98251.25;1211465;75;3875133;-77
2023/09/29 02:29:58;;;;;;;2.90;2.30;;;;;;;11.92;100.00;98250.00;1226498;75;2923082;-76
2023/09/29 02:32:31;;;;;;;2.60;2.40;;;;;;;11.92;100.00;98254.75;1224568;75;3058187;-75
2023/09/29 02:35:04;;;;;;;2.20;2.00;;;;;;;11.94;100.00;98247.56;1224807;75;3053457;-77
2023/09/29 02:37:36;;;;;;;2.55;2.10;;;;;;;11.94;100.00;98249.56;1219892;75;3047647;-76
2023/09/29 02:40:15;;;;;;;2.15;1.85;;;;;;;11.96;100.00;98258.06;1224987;75;3078841;-77
2023/09/29 02:42:50;;;;;;;4.25;3.40;;;;;;;11.77;100.00;98262.16;1225478;75;2956390;-76
2023/09/29 02:45:24;;;;;;;3.85;3.30;;;;;;;11.76;100.00;98264.16;1224991;75;3034666;-77
2023/09/29 02:47:57;;;;;;;5.25;3.25;;;;;;;11.81;100.00;98260.75;1225730;75;2966570;-78
2023/09/29 02:50:30;;;;;;;3.70;3.30;;;;;;;11.88;100.00;98248.69;1203872;75;4839785;-74
2023/09/29 02:53:05;;;;;;;3.30;3.00;;;;;;;11.98;100.00;98250.13;1211589;75;3906724;-78
2023/09/29 02:55:38;;;;;;;3.20;2.80;;;;;;;11.91;100.00;98243.03;1222743;75;3106860;-75
2023/09/29 02:58:13;;;;;;;2.85;2.40;;;;;;;11.79;100.00;98237.78;1212562;75;4016102;-77
2023/09/29 03:00:46;;;;;;;2.25;2.05;;;;;;;11.66;100.00;98247.00;1228606;75;2920060;-75
2023/09/29 03:03:19;;;;;;;2.75;2.25;;;;;;;11.79;100.00;98244.00;1174922;75;4908909;-76
2023/09/29 03:05:53;;;;;;;2.40;2.20;;;;;;;11.65;100.00;98240.00;1224523;75;3030360;-75
2023/09/29 03:08:25;;;;;;;2.35;2.15;;;;;;;11.56;100.00;98236.56;1200321;75;4805064;-77
2023/09/29 03:10:58;;;;;;;2.60;2.40;;;;;;;11.52;100.00;98239.50;1212131;75;4017396;-79
2023/09/29 03:13:34;;;;;;;4.35;3.60;;;;;;;11.16;100.00;98249.47;1210767;75;3867005;-79
2023/09/29 03:16:07;;;;;;;4.85;4.35;;;;;;;11.12;100.00;98257.09;1227671;75;2911034;-77
2023/09/29 03:18:40;;;;;;;4.45;3.75;;;;;;;11.38;100.00;98243.69;1200584;75;3979100;-73
2023/09/29 03:21:13;;;;;;;3.50;2.60;;;;;;;11.47;100.00;98243.63;1222642;75;3055711;-75
2023/09/29 03:23:46;;;;;;;2.95;2.55;;;;;;;11.40;100.00;98245.94;1226749;75;2929050;-75
2023/09/29 03:26:22;;;;;;;3.55;2.80;;;;;;;11.48;100.00;98249.88;1224095;75;2981830;-77
2023/09/29 03:28:57;;;;;;;3.70;2.85;;;;;;;11.46;100.00;98244.84;1222906;75;3020501;-76
2023/09/29 03:31:30;;;;;;;3.85;2.55;;;;;;;11.51;100.00;98243.44;1227038;75;2925259;-76
2023/09/29 03:34:03;;;;;;;2.50;2.00;;;;;;;11.53;100.00;98249.22;1225928;75;2933457;-74
2023/09/29 03:36:36;;;;;;;2.80;2.10;;;;;;;11.42;100.00;98251.72;1222874;75;3112751;-78
2023/09/29 03:39:09;;;;;;;2.05;1.85;;;;;;;11.45;100.00;98245.34;1211774;75;3859658;-76
2023/09/29 03:41:43;;;;;;;3.55;2.35;;;;;;;11.35;100.00;98241.88;1224428;75;2922469;-75
2023/09/29 03:44:18;;;;;;;3.55;2.50;;;;;;;11.27;100.00;98244.19;1226634;75;2919644;-75
2023/09/29 03:46:51;;;;;;;2.75;2.50;;;;;;;11.19;100.00;98239.56;1220889;75;3047875;-76
2023/09/29 03:49:24;;;;;;;3.80;3.40;;;;;;;11.14;100.00;98240.19;1223204;75;3066028;-75
2023/09/29 03:51:57;;;;;;;3.70;3.05;;;;;;;11.17;100.00;98245.47;1221921;75;3020345;-79
2023/09/29 03:54:30;;;;;;;3.65;2.95;;;;;;;11.06;100.00;98237.78;1221168;75;3096556;-76
2023/09/29 03:57:06;;;;;;;4.15;3.65;;;;;;;10.99;100.00;98248.31;1219828;75;3011559;-77
2023/09/29 03:59:43;;;;;;;3.50;3.20;;;;;;;11.12;100.00;98245.38;1222659;75;3058542;-79
2023/09/29 04:02:17;;;;;;;4.45;3.85;;;;;;;10.91;100.00;98242.41;1222561;75;2916124;-76
2023/09/29 04:04:50;;;;;;;4.35;3.40;;;;;;;10.98;100.00;98242.06;1218602;75;3069547;-76
2023/09/29 04:07:22;;;;;;;3.90;3.35;;;;;;;10.79;100.00;98246.13;1220720;75;3066756;-77
2023/09/29 04:09:55;;;;;;;3.30;2.85;;;;;;;10.81;100.00;98249.16;1221148;75;3016634;-76
2023/09/29 04:12:28;;;;;;;3.40;3.00;;;;;;;10.89;100.00;98253.06;1220520;75;3044045;-76
2023/09/29 04:15:03;;;;;;;3.00;2.70;;;;;;;10.94;100.00;98246.19;1210369;75;3963858;-76
2023/09/29 04:17:37;;;;;;;5.40;3.20;;;;;;;10.79;100.00;98257.06;1211949;75;3782423;-77
2023/09/29 04:20:12;;;;;;;3.65;3.25;;;;;;;10.87;100.00;98252.75;1224280;75;2928838;-74
2023/09/29 04:22:45;;;;;;;6.10;5.10;;;;;;;10.85;100.00;98255.97;1223353;75;2966711;-75
2023/09/29 04:25:18;;;;;;;4.80;4.30;;;;;;;10.77;100.00;98254.78;1221391;75;3093066;-77
2023/09/29 04:27:51;;;;;;;5.75;5.15;;;;;;;10.69;100.00;98259.09;1219814;75;3009613;-79
2023/09/29 04:30:26;;;;;;;6.35;4.85;;;;;;;10.74;100.00;98260.44;1223961;75;2932896;-74
2023/09/29 04:32:59;;;;;;;6.80;6.10;;;;;;;10.62;100.00;98262.91;1195502;75;4066198;-76
2023/09/29 04:35:31;;;;;;;9.30;8.30;;;;;;;10.70;100.00;98263.31;1216432;75;3096444;-82
2023/09/29 04:38:04;;;;;;;11.05;8.70;;;;;;;10.40;100.00;98268.59;1215065;75;3111912;-76
2023/09/29 04:40:37;;;;;;;9.20;8.20;;;;;;;10.54;100.00;98258.22;1222598;75;2929683;-77
2023/09/29 04:43:10;;;;;;;8.70;7.45;;;;;;;10.49;100.00;98272.53;1219206;75;3134653;-77
2023/09/29 04:45:45;;;;;;;12.40;11.10;;;;;;;10.47;100.00;98277.72;1217232;75;3062726;-75
2023/09/29 04:48:18;;;;;;;8.60;7.70;;;;;;;10.74;100.00;98272.16;1215867;75;3103780;-79
2023/09/29 04:50:51;;;;;;;7.90;7.10;;;;;;;10.58;100.00;98265.06;1221372;75;3036228;-77
2023/09/29 04:53:23;;;;;;;7.70;5.75;;;;;;;10.71;100.00;98275.06;1221165;75;2958252;-78
2023/09/29 04:55:56;;;;;;;5.70;5.10;;;;;;;10.60;100.00;98278.28;1218418;75;3076742;-79
2023/09/29 04:58:29;;;;;;;5.55;4.70;;;;;;;10.67;100.00;98275.22;1219899;75;3021467;-77
2023/09/29 05:01:04;;;;;;;5.05;4.40;;;;;;;10.76;100.00;98275.19;1219528;75;3081831;-79
2023/09/29 05:03:37;;;;;;;4.75;4.20;;;;;;;10.93;100.00;98277.56;1221469;75;2972531;-74
2023/09/29 05:06:09;;;;;;;3.70;3.40;;;;;;;10.91;100.00;98272.53;1219313;75;3092606;-75
2023/09/29 05:08:43;;;;;;;3.15;2.85;;;;;;;10.88;100.00;98278.94;1220854;75;3026713;-77
2023/09/29 05:11:24;;;;;;;3.95;2.85;;;;;;;10.94;100.00;98279.81;1210295;75;3937038;-79
2023/09/29 05:13:58;;;;;;;2.75;2.50;;;;;;;10.92;100.00;98287.78;1224019;75;2939266;-75
2023/09/29 05:16:34;;;;;;;2.65;2.45;;;;;;;11.00;100.00;98288.19;1223047;75;2919158;-76
2023/09/29 05:19:06;;;;;;;3.45;2.65;;;;;;;11.02;100.00;98286.50;1220841;75;3095575;-74
2023/09/29 05:21:39;;;;;;;2.30;2.10;;;;;;;11.03;100.00;98288.00;1220162;75;3046263;-77
2023/09/29 05:24:12;;;;;;;3.80;2.70;;;;;;;11.00;100.00;98297.16;1209093;75;3911367;-79
2023/09/29 05:26:45;;;;;;;2.80;2.50;;;;;;;11.03;100.00;98292.75;1209412;75;4018447;-76
2023/09/29 05:29:17;;;;;;;3.85;3.40;;;;;;;10.91;100.00;98299.94;1225120;75;2919180;-73
2023/09/29 05:31:53;;;;;;;3.10;2.80;;;;;;;11.14;100.00;98301.22;1218798;75;3093761;-78
2023/09/29 05:34:25;;;;;;;3.30;3.00;;;;;;;11.05;100.00;98293.03;1223552;75;2918940;-77
2023/09/29 05:36:58;;;;;;;2.85;2.55;;;;;;;11.17;100.00;98294.06;1220918;75;3061590;-75
2023/09/29 05:39:31;;;;;;;2.95;2.65;;;;;;;11.21;100.00;98289.94;1220790;75;3093551;-76
2023/09/29 05:42:04;;;;;;;3.20;2.55;;;;;;;11.26;100.00;98291.28;1223882;75;2923668;-78
2023/09/29 05:44:37;;;;;;;3.20;2.60;;;;;;;11.13;100.00;98296.19;1223079;75;2920471;-78
2023/09/29 05:47:12;;;;;;;3.55;2.40;;;;;;;11.35;100.00;98290.44;1222360;75;2992604;-77
2023/09/29 05:49:45;;;;;;;3.15;2.60;;;;;;;11.20;100.00;98304.84;1222938;75;2931418;-73
2023/09/29 05:52:17;;;;;;;4.00;2.80;;;;;;;11.27;100.00;98301.75;1218561;75;3048527;-79
2023/09/29 05:54:50;;;;;;;3.35;3.00;;;;;;;11.40;100.00;98301.56;1222835;75;2929738;-77
2023/09/29 05:57:23;;;;;;;2.75;2.45;;;;;;;11.48;100.00;98310.94;1222036;75;2924629;-77
2023/09/29 05:59:56;;;;;;;3.55;2.65;;;;;;;11.63;100.00;98307.50;1221500;75;2927821;-76
2023/09/29 06:02:31;;;;;;;2.20;2.00;;;;;;;11.75;100.00;98308.50;1221916;75;2992293;-76
2023/09/29 06:05:04;;;;;;;2.60;2.40;;;;;;;11.92;100.00;98307.63;1222544;75;2926299;-77
2023/09/29 06:07:36;;;;;;;2.65;2.40;;;;;;;11.99;100.00;98309.28;1208475;75;4022258;-77
2023/09/29 06:10:11;;;;;;;3.70;2.60;;;;;;;12.09;100.00;98307.97;1207967;75;3990393;-73
2023/09/29 06:12:43;;;;;;;2.60;2.40;;;;;;;12.21;100.00;98308.19;1201559;75;4190124;-78
2023/09/29 06:15:16;;;;;;;3.00;2.50;;;;;;;12.85;100.00;98304.81;1205248;75;3942055;-79
2023/09/29 06:17:51;;;;;;;4.30;3.35;;;;;;;17.39;98.73;98301.53;1219990;75;2935202;-77
2023/09/29 06:20:24;;;;;;;4.80;4.05;;;;;;;20.10;76.24;98305.91;1207504;75;3951744;-78
2023/09/29 06:22:57;;;;;;;3.40;3.10;;;;;;;21.70;66.53;98315.53;1221185;75;3020534;-79
2023/09/29 06:25:29;;;;;;;4.35;3.70;;;;;;;22.85;61.79;98316.88;1221009;75;3083137;-80
2023/09/29 06:28:02;;;;;;;7.15;4.85;;;;;;;23.48;58.85;98318.91;1218191;75;3010826;-81
2023/09/29 06:30:35;;;;;;;5.50;4.30;;;;;;;24.71;55.16;98311.81;1221033;75;2958456;-78
2023/09/29 06:33:10;;;;;;;5.25;4.60;;;;;;;25.31;53.37;98326.41;1196198;75;4067669;-77
2023/09/29 06:35:43;;;;;;;4.90;4.00;;;;;;;27.26;48.64;98318.84;1217097;75;3000577;-79
2023/09/29 06:38:15;;;;;;;4.05;3.55;;;;;;;28.40;46.05;98321.72;1218727;75;3081910;-80
2023/09/29 06:40:48;;;;;;;5.25;3.65;;;;;;;28.42;45.31;98319.06;1225934;75;2910404;-76
2023/09/29 06:43:21;;;;;;;5.00;3.60;;;;;;;29.08;44.07;98327.00;1221591;75;2987740;-81
2023/09/29 06:45:53;;;;;;;7.30;4.10;;;;;;;29.88;42.64;98322.41;1221636;75;3029641;-77
2023/09/29 06:48:29;;;;;;;5.90;3.00;;;;;;;31.04;40.60;98319.94;1223276;75;2924274;-77
2023/09/29 06:51:02;;;;;;;5.20;2.95;;;;;;;31.69;39.39;98324.34;1221715;75;3008214;-81
2023/09/29 06:53:35;;;;;;;3.90;3.30;;;;;;;30.97;39.90;98325.19;1218881;75;3105725;-77
2023/09/29 06:56:08;;;;;;;4.30;3.30;;;;;;;31.67;38.31;98323.47;1219280;75;2978761;-78
2023/09/29 06:58:40;;;;;;;5.65;4.50;;;;;;;27.59;44.34;98330.72;1222986;75;2924451;-81
2023/09/29 07:01:13;;;;;;;6.00;4.60;;;;;;;24.07;52.50;98333.03;1221555;75;2944582;-77
2023/09/29 07:03:48;;;;;;;7.90;5.60;;;;;;;21.52;57.74;98331.06;1213761;75;3643587;-76
2023/09/29 07:06:23;;;;;;;7.25;4.60;;;;;;;21.68;60.04;98330.00;1205771;75;4063876;-74
2023/09/29 07:08:55;;;;;;;6.90;5.05;;;;;;;21.11;62.46;98334.28;1221859;75;3029007;-77
2023/09/29 07:11:28;;;;;;;6.30;4.85;;;;;;;20.24;66.03;98340.13;1221895;75;2985493;-76
2023/09/29 07:14:02;;;;;;;10.80;6.70;;;;;;;19.18;72.50;98340.72;1206285;75;3960500;-79
2023/09/29 07:16:35;;;;;;;9.85;5.85;;;;;;;19.04;76.42;98337.03;1219565;75;3055058;-77
2023/09/29 07:19:12;;;;;;;10.20;6.90;;;;;;;18.48;79.40;98340.19;1223369;75;2924541;-78
2023/09/29 07:21:44;;;;;;;9.25;5.60;;;;;;;18.52;82.39;98335.88;1208051;75;4101804;-77
2023/09/29 07:24:17;;;;;;;8.60;5.35;;;;;;;18.68;81.74;98334.25;1223764;75;2932540;-79
2023/09/29 07:26:50;;;;;;;6.95;5.25;;;;;;;18.64;80.49;98338.56;1219627;75;3075251;-77
2023/09/29 07:29:22;;;;;;;6.70;5.55;;;;;;;18.45;81.40;98330.13;1223834;75;2920850;-78
2023/09/29 07:31:55;;;;;;;8.60;6.40;;;;;;;18.31;83.38;98341.03;1220270;75;3017862;-77
2023/09/29 07:34:30;;;;;;;12.45;6.80;;;;;;;18.16;84.76;98337.84;1224651;75;2919418;-74
2023/09/29 07:37:03;;;;;;;9.10;5.95;;;;;;;18.33;84.21;98331.44;1223225;75;2922792;-75
2023/09/29 07:39:36;;;;;;;10.45;6.75;;;;;;;18.61;83.55;98329.25;1220677;75;3081004;-74
2023/09/29 07:42:09;;;;;;;10.00;6.75;;;;;;;18.99;84.42;98334.31;1223082;75;3039284;-77
2023/09/29 07:44:41;;;;;;;9.35;6.45;;;;;;;18.86;86.25;98332.16;1209354;75;4006688;-82
2023/09/29 07:47:14;;;;;;;9.70;7.20;;;;;;;18.98;87.08;98327.25;1218077;75;3098829;-76
2023/09/29 07:49:49;;;;;;;7.85;6.10;;;;;;;19.14;84.74;98329.13;1219634;75;3063189;-79
2023/09/29 07:52:27;;;;;;;9.95;6.70;;;;;;;19.43;81.61;98324.06;1222926;75;2923387;-80
2023/09/29 07:55:00;;;;;;;8.70;6.90;;;;;;;20.02;76.23;98322.44;1224530;75;2922241;-79
2023/09/29 07:57:33;;;;;;;6.50;5.00;;;;;;;20.76;72.51;98328.53;1221796;75;2923891;-77
2023/09/29 08:00:09;;;;;;;5.20;4.70;;;;;;;20.85;70.74;98325.34;1208518;75;3876728;-77
2023/09/29 08:02:41;;;;;;;7.40;5.50;;;;;;;20.69;71.65;98329.13;1220355;75;3070266;-79
2023/09/29 08:05:17;;;;;;;7.75;5.55;;;;;;;21.22;69.58;98328.53;1212053;75;3812008;-79
2023/09/29 08:07:49;;;;;;;8.55;6.40;;;;;;;23.35;62.84;98331.63;1221081;75;2959917;-78
2023/09/29 08:10:22;;;;;;;8.00;5.25;;;;;;;27.75;51.70;98336.94;1220975;75;3056559;-81
2023/09/29 08:12:55;;;;;;;9.35;6.35;;;;;;;27.73;47.98;98336.78;1223745;75;2921147;-77
2023/09/29 08:15:27;;;;;;;7.90;5.45;;;;;;;31.35;42.89;98336.91;1222308;75;3011834;-78
2023/09/29 08:18:00;;;;;;;7.85;5.15;;;;;;;31.20;40.78;98333.13;1186382;75;5946954;-78
2023/09/29 08:20:36;;;;;;;6.40;4.80;;;;;;;33.05;38.69;98327.94;1224174;75;2919277;-73
2023/09/29 08:23:09;;;;;;;5.60;4.10;;;;;;;34.73;35.97;98331.84;1223362;75;2925771;-78
2023/09/29 08:25:43;;;;;;;5.65;3.85;;;;;;;35.35;34.92;98333.69;1221274;75;3023747;-82
2023/09/29 08:28:16;;;;;;;5.45;3.85;;;;;;;35.08;34.99;98323.03;1222529;75;2929525;-80
2023/09/29 08:30:48;;;;;;;4.95;3.80;;;;;;;35.00;34.34;98326.19;1223907;75;2927433;-78
2023/09/29 08:33:21;;;;;;;6.60;4.75;;;;;;;30.77;40.02;98335.06;1223168;75;2923475;-79
2023/09/29 08:35:57;;;;;;;7.20;4.70;;;;;;;30.92;40.28;98326.25;1219913;75;3097378;-80
2023/09/29 08:38:29;;;;;;;9.15;5.00;;;;;;;28.36;43.59;98324.25;1219449;75;3112007;-80
2023/09/29 08:41:06;;;;;;;4.80;3.70;;;;;;;30.81;41.48;98321.19;1221024;75;3031792;-79
2023/09/29 08:43:39;;;;;;;6.00;3.85;;;;;;;30.56;41.51;98324.41;1225089;75;2922754;-76
2023/09/29 08:46:15;;;;;;;6.90;4.60;;;;;;;27.88;45.74;98323.88;1222720;75;2920845;-81
2023/09/29 08:48:49;;;;;;;4.90;3.95;;;;;;;29.87;42.93;98318.13;1224676;75;2929218;-77
2023/09/29 08:51:25;;;;;;;6.80;4.95;;;;;;;27.23;46.67;98325.63;1221513;75;2986871;-79
2023/09/29 08:53:59;;;;;;;8.10;4.45;;;;;;;28.03;45.97;98318.81;1223869;75;2930085;-80
2023/09/29 08:56:32;;;;;;;5.05;3.85;;;;;;;28.97;45.19;98311.34;1221861;75;2939432;-80
2023/09/29 08:59:06;;;;;;;5.50;4.20;;;;;;;28.12;45.76;98317.41;1223864;75;2922268;-77
2023/09/29 09:01:40;;;;;;;5.10;3.40;;;;;;;30.38;42.07;98312.56;1222723;75;2930334;-81
2023/09/29 09:04:12;;;;;;;5.70;3.80;;;;;;;28.31;45.26;98321.66;1218255;75;3073572;-80
2023/09/29 09:06:47;;;;;;;8.25;4.20;;;;;;;27.98;45.29;98314.19;1222377;75;2930354;-80
2023/09/29 09:09:26;;;;;;;5.25;3.60;;;;;;;29.46;42.91;98312.22;1220485;75;3096829;-77
2023/09/29 09:11:58;;;;;;;3.60;2.70;;;;;;;30.81;41.07;98312.72;1225076;75;2921577;-76
2023/09/29 09:14:43;;;;;;;5.15;3.65;;;;;;;29.71;42.04;98306.38;1221855;75;3028148;-81
2023/09/29 09:17:16;;;;;;;4.65;3.25;;;;;;;29.70;41.15;98304.13;1222904;75;2932417;-81
2023/09/29 09:19:51;;;;;;;5.10;3.40;;;;;;;28.88;42.52;98300.78;1218690;75;3097558;-74
2023/09/29 09:22:32;;;;;;;3.50;3.00;;;;;;;30.51;41.03;98308.53;1223719;75;2915459;-77
2023/09/29 09:25:08;;;;;;;3.75;2.50;;;;;;;30.95;40.91;98305.25;1224315;75;2848732;-77
2023/09/29 09:27:42;;;;;;;11.35;4.00;;;;;;;28.60;43.61;98299.31;1219980;75;3055899;-82
2023/09/29 09:30:25;;;;;;;5.80;4.10;;;;;;;28.78;45.06;98302.81;1221703;75;2925016;-81
2023/09/29 09:32:58;;;;;;;6.45;4.55;;;;;;;27.92;46.38;98305.25;1220036;75;2964548;-80
2023/09/29 09:35:32;;;;;;;6.15;4.55;;;;;;;29.23;43.78;98304.19;1221442;75;2937869;-77
2023/09/29 09:38:07;;;;;;;6.00;4.50;;;;;;;28.46;43.42;98313.81;1208789;75;3960585;-79
2023/09/29 09:40:40;;;;;;;4.60;3.20;;;;;;;30.29;40.43;98299.22;1219818;75;3076396;-79
2023/09/29 09:43:14;;;;;;;7.55;4.35;;;;;;;28.00;43.06;98303.09;1224494;75;2919897;-80
2023/09/29 09:45:49;;;;;;;7.10;3.50;;;;;;;29.64;41.11;98300.84;1219425;75;3059994;-77
2023/09/29 09:48:24;;;;;;;6.00;3.50;;;;;;;30.43;40.69;98294.56;1222397;75;2923543;-81
2023/09/29 09:50:59;;;;;;;5.75;3.45;;;;;;;28.68;40.97;98288.69;1221035;75;3023102;-81
2023/09/29 09:53:37;;;;;;;5.80;3.40;;;;;;;29.46;40.64;98295.31;1224037;75;2928749;-81
2023/09/29 09:56:26;;;;;;;6.25;2.95;;;;;;;30.15;36.99;98296.81;1220717;75;3108284;-79
2023/09/29 09:58:59;;;;;;;5.00;3.00;;;;;;;30.94;36.82;98298.13;1223838;75;2926011;-78
2023/09/29 10:01:32;;;;;;;6.35;3.20;;;;;;;28.17;40.61;98291.06;1223976;75;2931066;-81
2023/09/29 10:04:07;;;;;;;4.95;2.85;;;;;;;28.67;40.39;98287.97;1223393;75;2921786;-79
2023/09/29 10:06:44;;;;;;;6.50;3.60;;;;;;;27.39;41.80;98284.03;1223539;75;2922254;-79
2023/09/29 10:09:19;;;;;;;;;;;;;;;29.17;41.08;98292.44;1219281;75;3059919;-84
2023/09/29 10:12:01;;;;;;;5.60;3.50;;;;;;;28.93;42.21;98293.38;1221575;75;2962989;-81
2023/09/29 10:14:45;;;;;;;5.85;3.60;;;;;;;28.39;42.63;98283.66;1206739;75;4043139;-78
2023/09/29 10:17:18;;;;;;;3.80;2.70;;;;;;;30.40;41.58;98280.88;1223542;75;2920790;-81
2023/09/29 10:19:54;;;;;;;5.10;3.90;;;;;;;31.18;39.24;98289.81;1220721;75;3067405;-79
2023/09/29 10:22:29;;;;;;;5.90;3.20;;;;;;;30.65;38.99;98283.34;1221931;75;2915788;-80
2023/09/29 10:25:20;;;;;;;7.20;3.30;;;;;;;30.50;39.78;98278.75;1218393;75;2997802;-81
2023/09/29 10:28:06;;;;;;;4.95;2.65;;;;;;;31.96;38.21;98272.28;1220985;75;2930675;-80
2023/09/29 10:30:40;;;;;;;5.10;3.40;;;;;;;30.86;39.95;98274.94;1225090;75;2916307;-78
2023/09/29 10:33:14;;;;;;;4.25;3.40;;;;;;;30.47;40.40;98277.16;1222234;75;3012832;-75
2023/09/29 10:35:49;;;;;;;4.00;2.60;;;;;;;31.49;38.02;98277.72;1224953;75;2917571;-78
2023/09/29 10:38:29;;;;;;;4.15;2.60;;;;;;;31.14;38.53;98272.56;1222409;75;2915736;-81
2023/09/29 10:41:06;;;;;;;4.40;2.60;;;;;;;30.13;39.48;98279.00;1223783;75;2918335;-82
2023/09/29 10:43:40;;;;;;;7.20;3.20;;;;;;;29.52;39.51;98269.66;1222287;75;2961586;-84
2023/09/29 10:46:13;;;;;;;3.60;2.55;;;;;;;30.28;38.92;98278.69;1224753;75;2924643;-78
2023/09/29 10:48:49;;;;;;;3.65;2.85;;;;;;;29.20;40.79;98270.78;1224041;75;2919982;-79
2023/09/29 10:51:25;;;;;;;4.75;3.25;;;;;;;30.90;38.51;98261.06;1220081;75;3051962;-82
2023/09/29 10:54:03;;;;;;;3.90;2.80;;;;;;;28.78;40.57;98260.56;1224340;75;2916669;-79
2023/09/29 10:56:39;;;;;;;4.40;2.80;;;;;;;31.01;38.57;98258.94;1219033;75;3076625;-80
2023/09/29 10:59:13;;;;;;;4.85;3.10;;;;;;;29.13;41.33;98255.50;1222867;75;2937630;-82
2023/09/29 11:01:48;;;;;;;4.60;2.90;;;;;;;29.60;39.23;98246.91;1221179;75;2982686;-78
2023/09/29 11:04:21;;;;;;;6.50;2.95;;;;;;;29.72;40.45;98247.84;1223718;75;2918004;-79
2023/09/29 11:06:54;;;;;;;4.45;2.75;;;;;;;30.85;38.11;98244.44;1220797;75;2929373;-77
2023/09/29 11:09:28;;;;;;;4.90;2.80;;;;;;;30.13;38.73;98250.75;1223205;75;2932680;-77
2023/09/29 11:12:04;;;;;;;4.80;3.35;;;;;;;30.13;38.04;98239.44;1224438;75;2947244;-78
2023/09/29 11:14:41;;;;;;;4.35;3.00;;;;;;;29.77;39.59;98226.28;1224052;75;2921486;-77
2023/09/29 11:17:14;;;;;;;4.70;2.60;;;;;;;28.63;39.53;98230.56;1222094;75;3000220;-80
2023/09/29 11:19:58;;;;;;;5.80;3.40;;;;;;;29.35;39.29;98230.31;1223025;75;2922873;-76
2023/09/29 11:22:33;;;;;;;4.30;2.80;;;;;;;28.92;40.04;98221.44;1220051;75;3048284;-81
2023/09/29 11:25:07;;;;;;;3.60;2.85;;;;;;;29.53;39.40;98218.25;1224595;75;2915121;-82
2023/09/29 11:27:42;;;;;;;4.95;3.00;;;;;;;28.98;40.01;98214.19;1222706;75;2919805;-77
2023/09/29 11:30:16;;;;;;;4.80;2.50;;;;;;;29.25;40.03;98213.38;1222900;75;2920586;-78
2023/09/29 11:32:50;;;;;;;3.90;2.90;;;;;;;30.56;37.81;98209.28;1221265;75;3064639;-82
2023/09/29 11:35:22;;;;;;;4.25;2.40;;;;;;;29.38;39.34;98215.00;1222743;75;2967801;-84
2023/09/29 11:37:55;;;;;;;4.80;2.50;;;;;;;30.01;39.34;98210.34;1223401;75;2919631;-77
2023/09/29 11:40:28;;;;;;;4.80;2.40;;;;;;;30.40;37.79;98196.13;1223804;75;2917912;-79
2023/09/29 11:43:04;;;;;;;6.00;3.10;;;;;;;29.21;39.25;98196.16;1219541;75;3024984;-80